Blandville, Kentucky
Current Conditions -  °F | °C
As of 12:53 PM on Friday 24 Oct 2014 (Local Time) from KPAH Reporting Station
Clear Clear  
Wind Chill: 68°   Ceiling: Unl
Heat Index: 68°   Visibility: 10mi
Dew Point: 54°   Wind: 7mph
Humidity: 61%   Direction: 300°WNW
Pressure: 30.1"   Gusts: NA
Location:  36.9684°N, 88.9802°W
Report Text: KPAH 241753Z 30006KT 10SM CLR 20/12 A3010 RMK AO2 SLP192 T02000122 10206 20061 58013
Loading
Personal Weather Stations






























Interactive Weather Map
Tropical Storm Tracking
New forecast layout! Learn more

10-Day Weather Forecast

Advertisements
Track Severe Weather on mobile